Time;durP1;ratioP1;P1;durP2;ratioP2;P2;SDS_P1;SDS_P2;PMS_P1;PMS_P2;Temp;Humidity;BMP_temperature;BMP_pressure;BME280_temperature;BME280_humidity;BME280_pressure;Samples;Min_cycle;Max_cycle;Signal;HPM_P1;HPM_P2
2021/12/08 00:00:28;;;;;;;1.37;1.27;;;4.60;99.90;;;;;;6263777;22;20260;-90
2021/12/08 00:02:55;;;;;;;5.03;1.03;;;4.70;99.90;;;;;;6238203;23;20204;-87
2021/12/08 00:05:22;;;;;;;0.60;0.60;;;4.70;99.90;;;;;;6239994;22;20528;-92
2021/12/08 00:07:49;;;;;;;0.60;0.60;;;4.70;99.90;;;;;;6238925;22;20189;-87
2021/12/08 00:15:41;;;;;;;0.30;0.30;;;4.70;99.90;;;;;;6240536;23;20443;-87
2021/12/08 00:18:15;;;;;;;0.83;0.73;;;4.70;99.90;;;;;;6263748;22;20188;-88
2021/12/08 00:20:43;;;;;;;0.80;0.80;;;4.70;99.90;;;;;;6263404;22;20201;-88
2021/12/08 00:23:09;;;;;;;1.13;0.97;;;4.70;99.90;;;;;;6237810;23;20205;-89
2021/12/08 00:25:37;;;;;;;1.50;0.50;;;4.80;99.90;;;;;;6238253;22;20193;-88
2021/12/08 00:28:04;;;;;;;0.40;0.40;;;4.80;99.90;;;;;;6263838;22;20189;-88
2021/12/08 00:30:30;;;;;;;0.67;0.67;;;4.80;99.90;;;;;;6264326;22;20211;-89
2021/12/08 00:32:58;;;;;;;1.10;0.50;;;4.80;99.90;;;;;;6262807;22;20219;-88
2021/12/08 00:35:25;;;;;;;1.57;1.13;;;4.80;99.90;;;;;;6238212;23;20394;-90
2021/12/08 00:37:51;;;;;;;1.17;0.77;;;4.90;99.90;;;;;;6238134;22;20267;-88
2021/12/08 00:40:18;;;;;;;0.90;0.80;;;4.90;99.90;;;;;;6238113;22;20232;-89
2021/12/08 00:42:46;;;;;;;0.90;0.90;;;4.90;99.90;;;;;;6264135;22;20161;-88
2021/12/08 00:45:13;;;;;;;1.73;1.10;;;4.90;99.90;;;;;;6264763;22;20183;-90
2021/12/08 00:47:40;;;;;;;0.70;0.70;;;4.90;99.90;;;;;;6237581;22;20250;-90
2021/12/08 00:50:08;;;;;;;0.83;0.77;;;5.00;99.90;;;;;;6212641;23;20744;-91
2021/12/08 00:52:35;;;;;;;0.60;0.60;;;5.00;99.90;;;;;;6238012;22;20506;-89
2021/12/08 00:55:02;;;;;;;0.80;0.60;;;5.00;99.90;;;;;;6212891;22;20197;-87
2021/12/08 00:57:28;;;;;;;1.00;0.90;;;5.10;99.90;;;;;;6263857;22;20168;-89
2021/12/08 00:59:54;;;;;;;1.00;0.90;;;5.00;99.90;;;;;;6238030;23;20205;-88
2021/12/08 01:02:20;;;;;;;1.27;1.27;;;5.00;99.90;;;;;;6213168;22;20278;-92
2021/12/08 01:04:46;;;;;;;1.00;1.00;;;5.10;99.90;;;;;;6238948;22;20700;-89
2021/12/08 01:07:12;;;;;;;2.07;1.67;;;5.00;99.90;;;;;;6238398;23;20254;-90
2021/12/08 01:09:37;;;;;;;1.33;0.50;;;5.00;99.90;;;;;;6239080;22;20579;-90
2021/12/08 01:12:05;;;;;;;0.87;0.87;;;5.00;99.90;;;;;;6238525;23;20197;-88
2021/12/08 01:14:34;;;;;;;0.87;0.87;;;5.00;99.90;;;;;;6238449;22;20193;-89
2021/12/08 01:17:01;;;;;;;0.83;0.83;;;5.00;99.90;;;;;;6263475;22;20225;-89
2021/12/08 01:19:27;;;;;;;2.73;1.07;;;5.00;99.90;;;;;;6263593;22;20634;-90
2021/12/08 01:21:54;;;;;;;1.03;1.03;;;5.00;99.90;;;;;;6263132;22;20181;-91
2021/12/08 01:24:20;;;;;;;1.20;0.93;;;5.00;99.90;;;;;;6239356;23;20158;-87
2021/12/08 01:26:47;;;;;;;1.03;0.70;;;5.00;99.90;;;;;;6238468;22;21086;-88
2021/12/08 01:29:12;;;;;;;2.07;1.93;;;5.00;99.90;;;;;;6238292;22;20194;-90
2021/12/08 01:31:43;;;;;;;5.30;1.57;;;5.00;99.90;;;;;;6213315;23;20196;-89
2021/12/08 01:34:10;;;;;;;0.77;0.77;;;5.10;99.90;;;;;;6240400;22;20634;-90
2021/12/08 01:36:37;;;;;;;1.53;1.53;;;5.00;99.90;;;;;;6241379;23;20163;-87
2021/12/08 01:39:07;;;;;;;1.17;1.00;;;5.00;99.90;;;;;;6240432;23;20212;-88
2021/12/08 01:41:34;;;;;;;1.17;1.07;;;5.10;99.90;;;;;;6240171;22;20233;-88
2021/12/08 01:46:44;;;;;;;1.00;0.60;;;5.10;99.90;;;;;;6241353;22;20189;-88
2021/12/08 01:49:10;;;;;;;1.43;1.33;;;5.10;99.90;;;;;;6214497;23;20197;-89
2021/12/08 01:51:36;;;;;;;0.93;0.40;;;5.10;99.90;;;;;;6266497;22;20158;-87
2021/12/08 01:54:05;;;;;;;0.63;0.63;;;5.10;99.90;;;;;;6264954;22;20197;-88
2021/12/08 01:56:32;;;;;;;1.60;1.50;;;5.20;99.90;;;;;;6240693;22;20217;-88
2021/12/08 01:58:58;;;;;;;1.43;1.33;;;5.20;99.90;;;;;;6240157;22;20276;-88
2021/12/08 02:01:26;;;;;;;2.40;1.20;;;5.20;99.90;;;;;;6240365;22;20271;-88
2021/12/08 02:03:52;;;;;;;1.73;1.27;;;5.10;99.90;;;;;;6241632;22;20863;-88
2021/12/08 02:06:21;;;;;;;1.23;1.13;;;5.20;99.90;;;;;;6240822;22;20176;-88
2021/12/08 02:08:52;;;;;;;1.30;1.20;;;5.20;99.90;;;;;;6265695;22;20204;-89
2021/12/08 02:11:20;;;;;;;1.17;1.17;;;5.20;99.90;;;;;;6264984;22;20244;-88
2021/12/08 02:13:46;;;;;;;1.27;1.17;;;5.20;99.90;;;;;;6215113;22;20528;-89
2021/12/08 02:16:15;;;;;;;1.73;1.20;;;5.20;99.90;;;;;;6239905;22;20572;-87
2021/12/08 02:18:44;;;;;;;1.23;0.63;;;5.20;99.90;;;;;;6265800;22;20150;-89
2021/12/08 02:21:52;;;;;;;0.37;0.37;;;5.30;99.90;;;;;;6266130;22;20181;-89
2021/12/08 02:24:19;;;;;;;0.90;0.90;;;5.30;99.90;;;;;;6095941;23;20219;-88
2021/12/08 02:26:46;;;;;;;1.83;1.40;;;5.40;99.90;;;;;;6241915;22;20348;-88
2021/12/08 02:29:21;;;;;;;1.20;1.10;;;5.40;99.90;;;;;;6239691;22;20629;-88
2021/12/08 02:32:10;;;;;;;3.70;1.13;;;5.50;99.90;;;;;;6265513;22;20188;-87
2021/12/08 02:48:34;;;;;;;1.17;0.53;;;5.60;99.90;;;;;;6240538;23;20154;-87
2021/12/08 02:51:01;;;;;;;1.10;1.00;;;5.60;99.90;;;;;;6214195;23;20601;-89
2021/12/08 02:53:27;;;;;;;1.30;0.87;;;5.60;99.90;;;;;;6213907;23;20654;-87
2021/12/08 02:55:52;;;;;;;1.07;1.07;;;5.70;99.90;;;;;;6239531;22;20204;-87
2021/12/08 02:58:19;;;;;;;2.60;2.40;;;5.70;99.90;;;;;;6214574;22;20199;-88
2021/12/08 03:00:57;;;;;;;3.00;2.27;;;5.70;99.90;;;;;;6239600;22;20249;-88
2021/12/08 03:03:24;;;;;;;1.30;1.20;;;5.70;99.90;;;;;;6265530;22;20144;-86
2021/12/08 03:05:50;;;;;;;1.93;1.83;;;5.80;99.90;;;;;;6264451;22;20201;-91
2021/12/08 03:08:16;;;;;;;0.73;0.73;;;5.80;99.90;;;;;;6239031;23;20193;-89
2021/12/08 03:10:45;;;;;;;3.90;2.37;;;5.80;99.90;;;;;;6214564;23;20251;-89
2021/12/08 03:13:11;;;;;;;0.87;0.87;;;5.80;99.90;;;;;;6264892;22;20200;-86
2021/12/08 03:15:39;;;;;;;2.30;2.20;;;5.80;99.90;;;;;;6240635;22;20161;-90
2021/12/08 03:18:06;;;;;;;1.97;1.80;;;5.90;99.90;;;;;;6265481;22;20283;-89
2021/12/08 03:20:40;;;;;;;2.67;2.47;;;5.90;99.90;;;;;;6239279;22;20216;-88
2021/12/08 03:23:10;;;;;;;3.13;1.83;;;5.90;99.90;;;;;;6265480;22;20194;-91
2021/12/08 03:25:40;;;;;;;1.83;1.50;;;5.90;99.90;;;;;;6264949;22;20193;-88
2021/12/08 03:28:17;;;;;;;2.40;1.93;;;5.90;99.90;;;;;;6239964;22;20657;-87
2021/12/08 03:33:22;;;;;;;2.23;2.13;;;6.00;99.90;;;;;;6240393;23;20152;-88
2021/12/08 03:35:48;;;;;;;1.40;1.30;;;6.00;99.90;;;;;;6214419;23;20197;-89
2021/12/08 03:38:16;;;;;;;1.57;1.47;;;6.10;99.90;;;;;;6264615;22;20204;-88
2021/12/08 03:40:42;;;;;;;2.70;2.50;;;6.10;99.90;;;;;;6239562;23;20643;-88
2021/12/08 03:43:08;;;;;;;1.87;1.73;;;6.10;99.90;;;;;;6239258;22;20193;-87
2021/12/08 03:45:37;;;;;;;1.37;1.27;;;6.20;99.90;;;;;;6214938;23;20371;-88
2021/12/08 03:48:07;;;;;;;1.90;1.80;;;6.20;99.90;;;;;;6265454;22;20185;-88
2021/12/08 03:50:37;;;;;;;1.13;1.13;;;6.20;99.90;;;;;;6264567;22;20228;-88
2021/12/08 03:53:05;;;;;;;1.20;1.03;;;6.20;99.90;;;;;;6264866;22;20239;-92
2021/12/08 03:55:31;;;;;;;1.97;1.73;;;6.20;99.90;;;;;;6264766;22;20193;-89
2021/12/08 03:57:57;;;;;;;2.00;1.37;;;6.20;99.90;;;;;;6213667;22;20196;-88
2021/12/08 04:00:26;;;;;;;3.70;1.47;;;6.20;99.90;;;;;;6239601;22;20276;-89
2021/12/08 04:02:52;;;;;;;2.03;1.93;;;6.20;99.90;;;;;;6264222;22;20565;-92
2021/12/08 04:05:20;;;;;;;1.27;1.17;;;6.30;99.90;;;;;;6238998;22;20193;-88
2021/12/08 04:07:52;;;;;;;1.40;1.30;;;6.40;99.90;;;;;;6239047;22;20193;-87
2021/12/08 04:10:20;;;;;;;1.43;1.43;;;6.40;99.90;;;;;;6238530;23;20189;-88
2021/12/08 04:12:49;;;;;;;4.10;2.43;;;6.30;99.90;;;;;;6239687;22;20161;-87
2021/12/08 04:15:16;;;;;;;1.67;1.53;;;6.40;99.90;;;;;;6239929;22;20169;-87
2021/12/08 04:17:46;;;;;;;1.50;1.40;;;6.40;99.90;;;;;;6238732;22;20208;-88
2021/12/08 04:20:36;;;;;;;3.30;1.77;;;6.40;99.90;;;;;;6264038;22;20285;-89
2021/12/08 04:23:03;;;;;;;2.03;1.83;;;6.40;99.90;;;;;;6264201;22;20263;-87
2021/12/08 04:25:33;;;;;;;1.33;1.23;;;6.50;99.90;;;;;;6238855;22;20215;-87
2021/12/08 04:28:04;;;;;;;3.93;3.17;;;6.50;99.90;;;;;;6264317;22;20189;-87
2021/12/08 04:30:58;;;;;;;5.37;2.90;;;6.40;99.90;;;;;;6264892;22;20184;-88
2021/12/08 04:33:24;;;;;;;2.57;2.37;;;6.50;99.90;;;;;;6264362;22;20217;-87
2021/12/08 04:35:53;;;;;;;3.77;2.47;;;6.40;99.90;;;;;;6239604;23;20197;-87
2021/12/08 04:38:31;;;;;;;2.40;1.63;;;6.50;99.90;;;;;;6238604;22;20541;-88
2021/12/08 04:41:03;;;;;;;2.00;1.90;;;6.50;99.90;;;;;;6264081;22;20645;-88
2021/12/08 04:43:39;;;;;;;2.17;1.93;;;6.50;99.90;;;;;;6264139;22;20189;-88
2021/12/08 04:52:02;;;;;;;2.83;2.40;;;6.60;99.90;;;;;;6239363;22;20141;-88
2021/12/08 05:06:04;;;;;;;2.40;1.50;;;6.80;99.90;;;;;;6239043;23;20221;-89
2021/12/08 05:08:42;;;;;;;3.63;1.83;;;6.80;99.90;;;;;;6244199;22;20197;-88
2021/12/08 05:11:16;;;;;;;2.87;2.63;;;6.80;99.90;;;;;;6243627;22;20219;-88
2021/12/08 05:13:44;;;;;;;3.27;3.00;;;6.70;99.90;;;;;;6266783;22;20199;-87
2021/12/08 05:16:10;;;;;;;2.40;2.27;;;6.80;99.90;;;;;;6266707;22;20511;-89
2021/12/08 05:18:40;;;;;;;2.10;2.00;;;6.80;99.90;;;;;;6267345;22;20172;-90
2021/12/08 05:21:25;;;;;;;2.63;2.50;;;6.80;99.90;;;;;;6266762;22;20641;-87
2021/12/08 05:24:16;;;;;;;2.40;2.20;;;6.80;99.90;;;;;;6266603;22;20641;-90
2021/12/08 05:26:55;;;;;;;2.37;2.20;;;6.70;99.90;;;;;;6226134;23;20198;-88
2021/12/08 05:29:36;;;;;;;1.43;1.33;;;6.70;99.90;;;;;;6266047;22;20189;-88
2021/12/08 05:32:04;;;;;;;2.87;2.57;;;6.60;99.90;;;;;;6266058;22;20288;-89
2021/12/08 05:34:30;;;;;;;4.27;2.43;;;6.60;99.90;;;;;;6214706;23;20235;-91
2021/12/08 05:36:56;;;;;;;3.47;2.43;;;6.50;99.90;;;;;;6215135;22;20165;-88
2021/12/08 05:39:26;;;;;;;1.87;1.63;;;6.60;99.90;;;;;;6215625;22;20232;-87
2021/12/08 05:41:57;;;;;;;2.10;1.90;;;6.60;99.90;;;;;;6265628;22;20197;-87
2021/12/08 05:44:24;;;;;;;3.73;2.13;;;6.60;99.90;;;;;;6264950;22;20263;-91
2021/12/08 05:46:52;;;;;;;3.33;2.30;;;6.70;99.90;;;;;;6266306;22;20609;-88
2021/12/08 05:49:19;;;;;;;1.57;1.23;;;6.70;99.90;;;;;;6253454;22;20193;-89
2021/12/08 05:51:48;;;;;;;1.97;1.20;;;6.80;99.90;;;;;;6240557;22;20538;-87
2021/12/08 05:54:29;;;;;;;1.47;1.47;;;6.80;99.90;;;;;;6266855;22;20157;-87
2021/12/08 05:56:57;;;;;;;1.80;1.57;;;6.80;99.90;;;;;;6265504;22;20205;-89
2021/12/08 05:59:24;;;;;;;2.30;1.87;;;6.80;99.90;;;;;;6240554;22;20525;-88
2021/12/08 06:01:53;;;;;;;2.27;2.07;;;6.80;99.90;;;;;;6265905;22;20728;-88
2021/12/08 06:04:21;;;;;;;2.53;2.33;;;6.80;99.90;;;;;;6239822;23;20204;-89
2021/12/08 06:06:47;;;;;;;1.73;1.63;;;6.80;99.90;;;;;;6240544;22;20166;-88
2021/12/08 06:09:15;;;;;;;1.93;1.83;;;6.80;99.90;;;;;;6266279;22;20157;-88
2021/12/08 06:11:42;;;;;;;1.90;1.63;;;6.90;99.90;;;;;;6240691;22;20200;-88
2021/12/08 06:14:09;;;;;;;3.17;2.13;;;6.90;99.90;;;;;;6265321;22;20220;-89
2021/12/08 06:16:37;;;;;;;1.93;1.40;;;6.80;99.90;;;;;;6240102;22;20201;-89
2021/12/08 06:19:08;;;;;;;4.07;1.83;;;6.80;99.90;;;;;;6265525;22;20929;-90
2021/12/08 06:21:34;;;;;;;1.97;1.33;;;6.80;99.90;;;;;;6265408;22;20604;-91
2021/12/08 06:24:01;;;;;;;6.13;1.70;;;6.90;99.90;;;;;;6215385;23;20276;-92
2021/12/08 06:26:27;;;;;;;2.73;1.70;;;6.90;99.90;;;;;;6215160;22;20323;-87
2021/12/08 06:28:54;;;;;;;4.10;1.67;;;6.90;99.90;;;;;;6214668;22;20246;-90
2021/12/08 06:31:22;;;;;;;1.73;1.37;;;6.90;99.90;;;;;;6212047;23;20193;-91
2021/12/08 06:33:48;;;;;;;6.87;3.00;;;6.90;99.90;;;;;;6265195;22;20227;-88
2021/12/08 06:36:24;;;;;;;2.77;1.73;;;6.90;99.90;;;;;;6214919;23;20287;-87
2021/12/08 06:38:51;;;;;;;1.90;1.80;;;6.90;99.90;;;;;;6265237;22;20197;-87
2021/12/08 06:41:22;;;;;;;6.17;1.97;;;6.90;99.90;;;;;;6239679;22;20205;-87
2021/12/08 06:43:54;;;;;;;2.13;2.03;;;6.80;99.90;;;;;;6238773;23;20199;-86
2021/12/08 06:46:22;;;;;;;1.77;1.37;;;6.80;99.90;;;;;;6264510;22;20193;-88
2021/12/08 06:48:52;;;;;;;2.00;1.03;;;6.80;99.90;;;;;;6238199;22;20162;-87
2021/12/08 06:51:36;;;;;;;1.10;1.10;;;6.80;99.90;;;;;;6265444;22;20188;-87
2021/12/08 06:54:10;;;;;;;1.33;1.23;;;6.80;99.90;;;;;;6264301;22;20284;-86
2021/12/08 06:56:41;;;;;;;3.83;1.97;;;6.90;99.90;;;;;;6264561;22;20231;-87
2021/12/08 06:59:15;;;;;;;2.27;2.07;;;6.90;99.90;;;;;;6264694;22;20204;-87
2021/12/08 07:02:02;;;;;;;11.03;2.73;;;7.00;99.90;;;;;;6264562;22;20201;-87
2021/12/08 07:04:36;;;;;;;17.20;1.57;;;7.10;99.90;;;;;;6264030;22;20205;-90
2021/12/08 07:07:12;;;;;;;4.93;1.43;;;7.10;99.90;;;;;;6265003;22;20279;-86
2021/12/08 07:09:41;;;;;;;1.90;1.73;;;7.10;99.90;;;;;;6264415;22;20164;-89
2021/12/08 07:12:13;;;;;;;3.20;2.17;;;7.20;99.90;;;;;;6239433;23;20161;-87
2021/12/08 07:14:41;;;;;;;1.90;1.53;;;7.10;99.90;;;;;;6238542;23;20204;-87
2021/12/08 07:17:13;;;;;;;1.40;1.10;;;7.20;99.90;;;;;;6264266;22;20197;-86
2021/12/08 07:19:46;;;;;;;2.77;2.33;;;7.20;99.90;;;;;;6240744;22;20227;-89
2021/12/08 07:22:20;;;;;;;2.90;2.03;;;7.20;99.90;;;;;;6264864;22;20205;-88
2021/12/08 07:24:50;;;;;;;3.17;2.87;;;7.20;99.90;;;;;;6263955;22;20152;-88
2021/12/08 07:27:22;;;;;;;2.43;1.63;;;7.20;99.90;;;;;;6265215;22;20153;-86
2021/12/08 07:29:49;;;;;;;3.70;2.87;;;7.20;99.90;;;;;;6264618;22;20255;-88
2021/12/08 07:32:36;;;;;;;2.13;1.10;;;7.20;99.90;;;;;;6239258;22;20263;-89
2021/12/08 07:35:11;;;;;;;0.70;0.70;;;7.10;99.90;;;;;;6264619;22;20292;-89
2021/12/08 07:37:37;;;;;;;2.60;2.23;;;7.10;99.90;;;;;;6239316;23;20676;-87
2021/12/08 07:40:21;;;;;;;1.53;1.40;;;7.10;99.90;;;;;;6240377;22;20528;-88
2021/12/08 07:42:51;;;;;;;1.47;1.37;;;7.10;99.90;;;;;;6265151;22;20137;-89
2021/12/08 07:45:25;;;;;;;0.90;0.90;;;7.20;99.90;;;;;;6265712;22;20152;-89
2021/12/08 07:47:53;;;;;;;0.80;0.80;;;7.20;99.90;;;;;;6264751;22;20196;-88
2021/12/08 07:50:25;;;;;;;1.03;0.93;;;7.30;99.90;;;;;;6265622;22;20197;-90
2021/12/08 07:52:53;;;;;;;1.37;1.27;;;7.20;99.90;;;;;;6264674;22;20211;-88
2021/12/08 07:55:26;;;;;;;1.10;0.97;;;7.30;99.90;;;;;;6239205;22;20919;-88
2021/12/08 07:57:52;;;;;;;10.00;1.50;;;7.30;99.90;;;;;;6265410;22;20225;-88
2021/12/08 08:00:21;;;;;;;1.57;1.37;;;7.30;99.90;;;;;;6240162;22;20267;-89
2021/12/08 08:02:47;;;;;;;4.27;1.97;;;7.20;99.90;;;;;;6239624;23;20197;-89
2021/12/08 08:05:15;;;;;;;1.97;1.30;;;7.30;99.90;;;;;;6214690;23;20525;-88
2021/12/08 08:07:43;;;;;;;0.73;0.73;;;7.30;99.90;;;;;;6239862;22;20193;-89
2021/12/08 08:10:15;;;;;;;0.70;0.70;;;7.30;99.90;;;;;;6239984;22;20266;-89
2021/12/08 08:12:46;;;;;;;2.03;1.30;;;7.30;99.90;;;;;;6265711;22;20520;-89
2021/12/08 08:15:23;;;;;;;1.97;1.60;;;7.30;99.90;;;;;;6242351;22;20229;-87
2021/12/08 08:17:53;;;;;;;2.73;1.13;;;7.30;99.90;;;;;;6264679;22;20842;-88
2021/12/08 08:20:30;;;;;;;1.27;1.10;;;7.30;99.90;;;;;;6240713;22;20654;-88
2021/12/08 08:22:59;;;;;;;0.87;0.87;;;7.30;99.90;;;;;;6264812;22;20196;-88
2021/12/08 08:25:34;;;;;;;1.37;0.77;;;7.20;99.90;;;;;;6265095;22;20209;-88
2021/12/08 08:28:00;;;;;;;0.60;0.60;;;7.20;99.90;;;;;;6265050;22;20606;-87
2021/12/08 08:30:31;;;;;;;4.60;1.20;;;7.20;99.90;;;;;;6265310;22;20161;-88
2021/12/08 08:32:58;;;;;;;2.00;1.07;;;7.20;99.90;;;;;;6264624;22;20201;-89
2021/12/08 08:35:31;;;;;;;0.80;0.80;;;7.20;99.90;;;;;;6264325;22;20296;-88
2021/12/08 08:37:59;;;;;;;1.20;0.83;;;7.20;99.90;;;;;;6238972;23;20204;-89
2021/12/08 08:40:39;;;;;;;0.93;0.93;;;7.20;99.90;;;;;;6263796;22;20244;-88
2021/12/08 08:43:08;;;;;;;1.83;1.73;;;7.20;99.90;;;;;;6240934;22;20193;-89
2021/12/08 08:45:42;;;;;;;1.33;1.23;;;7.20;99.90;;;;;;6265415;22;20160;-89
2021/12/08 08:48:14;;;;;;;0.70;0.70;;;7.10;99.90;;;;;;6239247;23;20181;-88
2021/12/08 08:50:50;;;;;;;2.73;1.87;;;7.10;99.90;;;;;;6263934;22;20197;-88
2021/12/08 08:53:18;;;;;;;4.13;0.70;;;7.20;99.90;;;;;;6264458;22;20529;-90
2021/12/08 08:55:51;;;;;;;2.87;1.00;;;7.10;99.90;;;;;;6264526;22;20196;-87
2021/12/08 08:58:20;;;;;;;0.60;0.60;;;7.00;99.90;;;;;;6264420;22;20197;-88
2021/12/08 09:00:59;;;;;;;3.53;1.13;;;7.00;99.90;;;;;;6264740;22;20676;-88
2021/12/08 09:03:37;;;;;;;0.77;0.77;;;7.00;99.90;;;;;;6265442;22;20149;-87
2021/12/08 09:06:09;;;;;;;0.50;0.40;;;7.00;99.90;;;;;;6264026;22;20204;-87
2021/12/08 09:08:38;;;;;;;0.97;0.40;;;7.00;99.90;;;;;;6240226;22;20208;-88
2021/12/08 09:11:12;;;;;;;1.40;1.27;;;6.90;99.90;;;;;;6239221;23;20201;-87
2021/12/08 09:13:41;;;;;;;7.17;2.20;;;7.00;99.90;;;;;;6263968;22;20188;-88
2021/12/08 09:16:22;;;;;;;3.03;1.40;;;7.10;99.90;;;;;;6238379;23;20204;-88
2021/12/08 09:18:55;;;;;;;1.00;0.97;;;7.10;99.90;;;;;;6264035;22;20188;-88
2021/12/08 09:21:48;;;;;;;1.83;1.73;;;7.10;99.90;;;;;;6239652;23;20177;-89
2021/12/08 09:24:26;;;;;;;0.60;0.60;;;7.10;99.90;;;;;;6238506;23;20181;-88
2021/12/08 09:26:57;;;;;;;0.77;0.33;;;7.10;99.90;;;;;;6264217;22;20193;-90
2021/12/08 09:29:40;;;;;;;1.60;1.60;;;7.10;99.90;;;;;;6264334;22;20216;-87
2021/12/08 09:32:18;;;;;;;1.80;1.70;;;7.10;99.90;;;;;;6264245;22;20560;-88
2021/12/08 09:34:58;;;;;;;0.70;0.70;;;7.20;99.90;;;;;;6263230;22;20203;-88
2021/12/08 09:37:32;;;;;;;1.23;1.00;;;7.20;99.90;;;;;;6264342;22;20193;-88
2021/12/08 09:40:10;;;;;;;1.07;0.97;;;7.20;99.90;;;;;;6263964;22;20215;-89
2021/12/08 09:42:41;;;;;;;1.90;1.07;;;7.20;99.90;;;;;;6264703;22;20481;-88
2021/12/08 09:45:13;;;;;;;2.23;2.03;;;7.20;99.90;;;;;;6264557;22;20286;-88
2021/12/08 09:47:38;;;;;;;1.97;1.80;;;7.20;99.90;;;;;;6264261;22;20197;-87
2021/12/08 09:50:08;;;;;;;1.00;0.97;;;7.20;99.90;;;;;;6213047;23;20193;-88
2021/12/08 09:52:34;;;;;;;2.17;1.73;;;7.20;99.90;;;;;;6264425;22;20243;-90
2021/12/08 09:55:01;;;;;;;0.97;0.97;;;7.30;99.90;;;;;;6238157;22;20277;-89
2021/12/08 09:57:29;;;;;;;3.93;1.40;;;7.30;99.90;;;;;;6240270;22;20158;-88
2021/12/08 09:59:55;;;;;;;3.03;0.80;;;7.30;99.90;;;;;;6265570;22;20201;-87
2021/12/08 10:02:31;;;;;;;0.70;0.67;;;7.40;99.90;;;;;;6265421;22;20205;-88
2021/12/08 10:04:59;;;;;;;0.57;0.40;;;7.40;99.90;;;;;;6265724;22;20201;-88
2021/12/08 10:07:26;;;;;;;0.67;0.67;;;7.40;99.90;;;;;;6265970;22;20242;-88
2021/12/08 10:09:52;;;;;;;0.87;0.87;;;7.40;99.90;;;;;;6240648;22;20162;-88
2021/12/08 10:12:19;;;;;;;2.00;0.80;;;7.50;99.90;;;;;;6241533;22;20178;-87
2021/12/08 10:14:46;;;;;;;1.80;0.97;;;7.50;99.90;;;;;;6265454;22;20189;-91
2021/12/08 10:17:14;;;;;;;0.47;0.40;;;7.50;99.90;;;;;;6240575;22;20194;-87
2021/12/08 10:19:41;;;;;;;1.27;1.17;;;7.40;99.90;;;;;;6240513;22;20247;-88
2021/12/08 10:22:21;;;;;;;0.63;0.63;;;7.50;99.90;;;;;;6240124;22;20204;-87
2021/12/08 10:25:13;;;;;;;1.03;1.00;;;7.60;99.90;;;;;;6240194;22;20598;-88
2021/12/08 10:28:09;;;;;;;2.90;1.73;;;7.60;99.90;;;;;;6265694;22;20173;-88
2021/12/08 10:30:48;;;;;;;0.30;0.30;;;7.80;99.90;;;;;;6241265;23;20158;-86
2021/12/08 10:33:45;;;;;;;1.80;1.53;;;7.80;99.90;;;;;;6240237;23;20181;-87
2021/12/08 10:36:23;;;;;;;0.90;0.90;;;7.80;99.90;;;;;;6265848;22;20205;-88
2021/12/08 10:38:49;;;;;;;2.10;2.00;;;7.90;99.90;;;;;;6242774;22;20188;-88
2021/12/08 10:41:15;;;;;;;1.13;1.03;;;7.80;99.90;;;;;;6215461;23;21006;-90
2021/12/08 10:43:40;;;;;;;2.10;1.47;;;7.70;99.90;;;;;;6215559;22;20197;-87
2021/12/08 10:46:09;;;;;;;0.50;0.50;;;7.80;99.90;;;;;;6214939;23;20200;-89
2021/12/08 10:48:42;;;;;;;0.67;0.67;;;7.70;99.90;;;;;;6266391;22;20657;-89
2021/12/08 10:54:27;;;;;;;0.63;0.63;;;7.70;99.90;;;;;;6241182;23;20243;-89
2021/12/08 10:56:58;;;;;;;1.30;0.63;;;7.60;99.90;;;;;;6239883;23;20209;-89
2021/12/08 10:59:26;;;;;;;3.90;2.27;;;7.60;99.90;;;;;;6266126;22;20197;-89
2021/12/08 11:01:53;;;;;;;1.27;1.17;;;7.60;99.90;;;;;;6239660;23;20201;-90
2021/12/08 11:04:29;;;;;;;3.57;2.07;;;7.60;99.90;;;;;;6265685;22;20216;-88
2021/12/08 11:07:07;;;;;;;6.20;1.33;;;7.60;99.90;;;;;;6265765;22;20153;-89
2021/12/08 11:09:43;;;;;;;1.60;1.53;;;7.50;99.90;;;;;;6266346;22;20150;-89
2021/12/08 11:12:09;;;;;;;0.93;0.50;;;7.60;99.90;;;;;;6215203;22;20177;-87
2021/12/08 11:14:50;;;;;;;5.00;1.70;;;7.60;99.90;;;;;;6214709;23;20193;-87
2021/12/08 11:17:25;;;;;;;0.97;0.97;;;7.70;99.90;;;;;;6265909;22;20779;-89
2021/12/08 11:20:31;;;;;;;0.50;0.50;;;7.70;99.90;;;;;;6230745;22;20184;-88
2021/12/08 11:23:04;;;;;;;1.13;1.13;;;7.60;99.90;;;;;;6265408;22;20634;-90
2021/12/08 11:25:41;;;;;;;1.63;1.50;;;7.70;99.90;;;;;;6266652;22;20248;-88
2021/12/08 11:28:33;;;;;;;1.17;1.07;;;7.70;99.90;;;;;;6266479;22;20267;-90
2021/12/08 11:31:10;;;;;;;0.50;0.50;;;7.70;99.90;;;;;;6241375;22;20570;-88
2021/12/08 11:33:42;;;;;;;0.70;0.70;;;7.70;99.90;;;;;;6266974;22;20536;-87
2021/12/08 11:36:08;;;;;;;0.87;0.87;;;7.80;99.90;;;;;;6265851;22;20212;-89
2021/12/08 11:38:33;;;;;;;1.07;1.00;;;7.80;99.90;;;;;;6241148;23;20561;-88
2021/12/08 11:40:59;;;;;;;7.93;0.80;;;7.80;99.90;;;;;;6241319;22;20223;-89
2021/12/08 11:43:30;;;;;;;3.13;1.07;;;7.70;99.90;;;;;;6216871;23;20197;-88
2021/12/08 11:46:16;;;;;;;2.10;1.40;;;7.60;99.90;;;;;;6241959;22;20654;-87
2021/12/08 11:48:59;;;;;;;1.23;1.23;;;7.80;99.90;;;;;;6267355;22;20221;-89
2021/12/08 11:51:25;;;;;;;4.80;2.10;;;7.70;99.90;;;;;;6267148;22;20190;-88
2021/12/08 11:53:51;;;;;;;2.33;1.53;;;7.70;99.90;;;;;;6216227;23;20280;-90
2021/12/08 11:56:36;;;;;;;2.10;1.57;;;7.70;99.90;;;;;;6214943;23;20229;-92
2021/12/08 11:59:05;;;;;;;1.57;1.47;;;7.70;99.90;;;;;;6264958;22;20269;-89
2021/12/08 12:01:31;;;;;;;3.53;1.63;;;7.70;99.90;;;;;;6266022;22;20201;-89
2021/12/08 12:03:57;;;;;;;3.47;1.60;;;7.90;99.90;;;;;;6267147;22;20166;-89
2021/12/08 12:06:28;;;;;;;1.93;1.20;;;8.00;99.90;;;;;;6241342;23;20161;-89
2021/12/08 12:08:58;;;;;;;3.10;1.27;;;7.90;99.90;;;;;;6265368;22;20511;-89
2021/12/08 12:11:29;;;;;;;1.17;0.73;;;7.90;99.90;;;;;;6265032;22;20189;-88
2021/12/08 12:13:57;;;;;;;1.63;1.43;;;7.90;99.90;;;;;;6239588;22;20221;-88
2021/12/08 12:16:24;;;;;;;1.67;1.10;;;7.80;99.90;;;;;;6264611;22;20192;-89
2021/12/08 12:18:53;;;;;;;0.83;0.83;;;7.90;99.90;;;;;;6239387;22;20158;-87
2021/12/08 12:21:27;;;;;;;3.07;2.70;;;7.90;99.90;;;;;;6239428;22;20185;-87
2021/12/08 12:23:55;;;;;;;2.13;1.13;;;7.80;99.90;;;;;;6265804;22;20196;-89
2021/12/08 12:26:46;;;;;;;0.77;0.77;;;7.80;99.90;;;;;;6239886;23;20189;-91
2021/12/08 12:29:35;;;;;;;1.63;1.53;;;7.80;99.90;;;;;;6265060;22;20197;-90
2021/12/08 12:32:26;;;;;;;1.07;0.90;;;7.80;99.90;;;;;;6239998;23;20635;-90
2021/12/08 12:35:27;;;;;;;3.30;2.53;;;7.70;99.90;;;;;;6265732;22;20201;-89
2021/12/08 12:38:09;;;;;;;0.63;0.63;;;7.70;99.90;;;;;;6239132;23;20677;-88
2021/12/08 12:40:45;;;;;;;1.53;1.30;;;7.70;99.90;;;;;;6265320;22;20541;-90
2021/12/08 12:43:26;;;;;;;1.40;1.10;;;7.60;99.90;;;;;;6265474;22;20204;-88
2021/12/08 12:46:06;;;;;;;1.00;0.93;;;7.60;99.90;;;;;;6265073;22;20141;-89
2021/12/08 12:48:36;;;;;;;1.57;1.27;;;7.60;99.90;;;;;;6241129;22;20179;-92
2021/12/08 12:51:10;;;;;;;0.63;0.60;;;7.60;99.90;;;;;;6239490;22;20193;-89
2021/12/08 12:53:49;;;;;;;2.10;1.60;;;7.60;99.90;;;;;;6264066;22;20204;-89
2021/12/08 12:56:36;;;;;;;7.40;1.27;;;7.60;99.90;;;;;;6264475;22;20201;-88
2021/12/08 12:59:16;;;;;;;3.37;2.77;;;7.70;99.90;;;;;;6238549;22;20208;-89
2021/12/08 13:01:46;;;;;;;2.70;1.27;;;7.90;99.90;;;;;;6239111;23;20228;-87
2021/12/08 13:04:21;;;;;;;3.03;1.27;;;7.90;99.90;;;;;;6239108;22;20228;-88
2021/12/08 13:06:48;;;;;;;3.20;1.53;;;7.90;99.90;;;;;;6264451;22;20164;-91
2021/12/08 13:09:35;;;;;;;1.20;1.03;;;7.60;99.90;;;;;;6239360;23;20162;-88
2021/12/08 13:12:15;;;;;;;1.60;1.43;;;7.40;99.90;;;;;;6238808;23;20247;-87
2021/12/08 13:14:41;;;;;;;4.27;1.00;;;7.40;99.90;;;;;;6239103;23;20204;-87
2021/12/08 13:17:19;;;;;;;3.57;1.50;;;7.50;99.90;;;;;;6214039;22;20535;-90
2021/12/08 13:19:56;;;;;;;1.47;1.37;;;7.40;99.90;;;;;;6264449;22;20233;-87
2021/12/08 13:22:51;;;;;;;1.77;1.30;;;7.40;99.90;;;;;;6264272;22;20748;-88
2021/12/08 13:28:33;;;;;;;1.40;1.30;;;7.50;99.90;;;;;;6239967;22;20201;-87
2021/12/08 13:31:10;;;;;;;10.63;1.23;;;7.40;99.90;;;;;;6239992;22;20201;-91
2021/12/08 13:34:05;;;;;;;1.07;1.07;;;7.40;99.90;;;;;;6241713;23;20192;-90
2021/12/08 13:36:37;;;;;;;4.57;1.87;;;7.40;99.90;;;;;;6236947;22;20542;-89
2021/12/08 13:39:24;;;;;;;1.03;0.90;;;7.40;99.90;;;;;;6266887;22;20201;-91
2021/12/08 13:41:59;;;;;;;1.33;1.23;;;7.40;99.90;;;;;;6240940;23;20204;-90
2021/12/08 13:44:36;;;;;;;0.90;0.70;;;7.40;99.90;;;;;;6266163;22;20658;-90
2021/12/08 13:47:29;;;;;;;0.93;0.93;;;7.40;99.90;;;;;;6265750;22;20193;-89
2021/12/08 13:50:11;;;;;;;1.03;0.87;;;7.40;99.90;;;;;;6265837;22;20228;-89
2021/12/08 13:52:43;;;;;;;1.33;1.33;;;7.40;99.90;;;;;;6265966;22;20190;-88
2021/12/08 13:55:09;;;;;;;0.97;0.80;;;7.40;99.90;;;;;;6266050;22;20302;-90
2021/12/08 13:57:47;;;;;;;4.97;1.23;;;7.30;99.90;;;;;;6240961;23;20598;-89
2021/12/08 14:00:16;;;;;;;0.70;0.70;;;7.30;99.90;;;;;;6239935;23;20184;-88
2021/12/08 14:02:51;;;;;;;1.33;1.23;;;7.30;99.90;;;;;;6240350;23;20538;-89
2021/12/08 14:05:31;;;;;;;0.40;0.40;;;7.20;99.90;;;;;;6240215;23;20593;-88
2021/12/08 14:08:26;;;;;;;0.67;0.67;;;7.20;99.90;;;;;;6241543;22;20253;-90
2021/12/08 14:10:53;;;;;;;1.00;1.00;;;7.10;99.90;;;;;;6265663;22;20189;-87